Time;durP1;ratioP1;P1;durP2;ratioP2;P2;SDS_P1;SDS_P2;PMS_P1;PMS_P2;Temp;Humidity;BMP_temperature;BMP_pressure;BME280_temperature;BME280_humidity;BME280_pressure;Samples;Min_cycle;Max_cycle;Signal;HPM_P1;HPM_P2
2022/03/24 00:01:34;;;;;;;8.35;5.82;;;9.00;60.70;;;;;;5017269;28;20105;-74
2022/03/24 00:04:00;;;;;;;8.88;5.70;;;9.20;60.20;;;;;;5019480;28;20049;-73
2022/03/24 00:06:25;;;;;;;11.05;5.35;;;9.30;60.30;;;;;;5021958;28;20041;-73
2022/03/24 00:08:51;;;;;;;9.68;5.63;;;9.40;60.00;;;;;;5026295;28;20036;-73
2022/03/24 00:11:20;;;;;;;10.23;5.65;;;9.50;59.90;;;;;;5023856;28;20103;-74
2022/03/24 00:13:48;;;;;;;9.45;5.75;;;9.30;60.20;;;;;;5024447;28;20091;-74
2022/03/24 00:16:15;;;;;;;9.45;5.25;;;9.10;60.30;;;;;;5026804;28;20036;-73
2022/03/24 00:18:41;;;;;;;11.95;6.20;;;8.90;60.60;;;;;;5029697;28;20049;-74
2022/03/24 00:21:07;;;;;;;10.98;5.30;;;9.20;60.40;;;;;;5026183;28;20475;-73
2022/03/24 00:23:33;;;;;;;9.77;5.43;;;9.10;60.50;;;;;;5028551;28;20039;-73
2022/03/24 00:25:58;;;;;;;14.60;5.65;;;9.10;60.50;;;;;;5030136;28;20030;-73
2022/03/24 00:28:24;;;;;;;15.02;5.43;;;9.10;60.50;;;;;;5029859;28;20104;-73
2022/03/24 00:30:50;;;;;;;7.60;4.57;;;9.30;60.50;;;;;;5028645;28;20053;-73
2022/03/24 00:33:15;;;;;;;8.95;4.97;;;9.10;60.50;;;;;;5027984;28;20037;-73
2022/03/24 00:35:41;;;;;;;11.00;5.68;;;8.80;61.10;;;;;;5029206;28;20030;-73
2022/03/24 00:38:07;;;;;;;12.57;5.32;;;9.00;60.70;;;;;;5029092;28;20042;-73
2022/03/24 00:40:34;;;;;;;9.40;5.32;;;8.90;60.90;;;;;;5028031;28;20375;-73
2022/03/24 00:43:00;;;;;;;7.75;4.13;;;9.00;60.80;;;;;;5026972;28;20421;-73
2022/03/24 00:45:26;;;;;;;12.27;5.47;;;9.00;60.70;;;;;;5029189;28;20036;-73
2022/03/24 00:47:52;;;;;;;10.63;5.55;;;9.20;60.20;;;;;;5025542;28;20372;-73
2022/03/24 00:50:18;;;;;;;9.48;6.07;;;8.90;60.80;;;;;;5030450;28;20071;-73
2022/03/24 00:52:45;;;;;;;8.55;5.10;;;8.60;61.30;;;;;;5025480;28;20041;-74
2022/03/24 00:55:16;;;;;;;9.45;5.63;;;8.50;61.30;;;;;;5019897;28;20037;-73
2022/03/24 00:57:44;;;;;;;10.48;4.60;;;8.20;61.80;;;;;;5027628;28;20058;-73
2022/03/24 01:00:15;;;;;;;7.45;4.32;;;8.20;61.90;;;;;;5029523;28;20364;-73
2022/03/24 01:02:41;;;;;;;7.80;4.75;;;8.50;61.60;;;;;;5024336;28;20099;-74
2022/03/24 01:05:08;;;;;;;9.80;5.07;;;8.30;61.70;;;;;;5031935;28;20126;-73
2022/03/24 01:07:35;;;;;;;12.10;4.82;;;8.30;61.90;;;;;;5031432;28;20546;-73
2022/03/24 01:10:02;;;;;;;8.30;4.55;;;8.70;61.10;;;;;;5033233;28;20175;-73
2022/03/24 01:12:28;;;;;;;8.13;4.60;;;8.70;61.00;;;;;;5020401;28;20268;-73
2022/03/24 01:14:56;;;;;;;10.05;5.25;;;8.50;61.40;;;;;;5031806;28;20037;-73
2022/03/24 01:17:23;;;;;;;11.40;4.82;;;8.40;61.50;;;;;;5031078;28;20052;-73
2022/03/24 01:19:49;;;;;;;9.25;4.95;;;8.70;61.00;;;;;;5032541;28;20033;-73
2022/03/24 01:22:15;;;;;;;8.32;4.45;;;8.50;61.40;;;;;;5030470;28;20061;-73
2022/03/24 01:24:41;;;;;;;8.60;4.60;;;8.60;61.10;;;;;;5033491;28;20060;-74
2022/03/24 01:27:09;;;;;;;10.18;5.68;;;8.60;61.30;;;;;;5032740;28;20036;-73
2022/03/24 01:29:35;;;;;;;11.10;4.55;;;8.50;61.90;;;;;;5028900;28;20120;-73
2022/03/24 01:32:01;;;;;;;10.05;4.97;;;8.20;61.70;;;;;;5031035;28;20109;-73
2022/03/24 01:34:26;;;;;;;9.48;5.07;;;8.40;61.70;;;;;;5030874;28;20083;-73
2022/03/24 01:36:52;;;;;;;9.30;5.10;;;8.20;61.70;;;;;;5032870;28;20037;-73
2022/03/24 01:39:18;;;;;;;12.45;4.78;;;7.90;62.50;;;;;;5032201;28;21695;-73
2022/03/24 01:41:47;;;;;;;12.93;5.18;;;7.90;62.70;;;;;;5031865;28;20108;-73
2022/03/24 01:44:18;;;;;;;7.90;4.50;;;8.30;62.10;;;;;;5031352;28;20038;-74
2022/03/24 01:47:07;;;;;;;10.18;5.03;;;8.40;62.00;;;;;;5030845;28;20112;-73
2022/03/24 01:49:38;;;;;;;9.10;4.65;;;8.20;62.20;;;;;;5031846;28;20063;-73
2022/03/24 01:52:09;;;;;;;8.63;4.53;;;8.20;62.40;;;;;;5031472;28;20065;-72
2022/03/24 01:54:37;;;;;;;9.45;4.28;;;8.00;62.20;;;;;;5032970;28;20116;-73
2022/03/24 01:57:04;;;;;;;8.13;4.35;;;7.90;62.20;;;;;;5029722;28;20076;-73
2022/03/24 01:59:31;;;;;;;8.43;4.75;;;7.90;62.60;;;;;;5032579;28;20076;-73
2022/03/24 02:01:57;;;;;;;7.95;4.47;;;7.70;63.00;;;;;;5030866;28;20115;-73
2022/03/24 02:04:23;;;;;;;9.70;4.35;;;7.70;62.90;;;;;;5028545;28;20045;-73
2022/03/24 02:06:49;;;;;;;7.88;4.35;;;7.90;62.70;;;;;;5029005;28;20079;-73
2022/03/24 02:09:15;;;;;;;9.63;4.93;;;8.20;62.10;;;;;;5032953;28;20029;-72
2022/03/24 02:11:41;;;;;;;9.25;4.72;;;8.10;62.30;;;;;;5028386;28;20546;-73
2022/03/24 02:14:08;;;;;;;7.70;4.28;;;7.80;62.80;;;;;;5028459;28;20116;-73
2022/03/24 02:16:39;;;;;;;11.52;4.90;;;7.60;63.30;;;;;;5030408;28;20029;-72
2022/03/24 02:19:25;;;;;;;8.63;4.63;;;7.70;63.10;;;;;;5031724;28;20048;-73
2022/03/24 02:21:53;;;;;;;7.38;4.38;;;7.90;63.00;;;;;;5025928;28;20446;-73
2022/03/24 02:24:20;;;;;;;6.25;3.50;;;7.90;63.40;;;;;;5027058;28;20414;-73
2022/03/24 02:26:47;;;;;;;8.30;4.13;;;8.00;62.60;;;;;;5025218;28;20037;-73
2022/03/24 02:29:15;;;;;;;7.25;3.40;;;8.10;62.50;;;;;;5031350;28;20061;-73
2022/03/24 02:31:44;;;;;;;7.55;4.38;;;8.10;62.50;;;;;;5021818;28;20094;-74
2022/03/24 02:37:00;;;;;;;7.43;3.63;;;8.10;62.50;;;;;;5030665;28;20055;-73
2022/03/24 02:39:26;;;;;;;9.02;4.35;;;8.40;62.30;;;;;;5025073;28;20052;-73
2022/03/24 02:41:53;;;;;;;7.65;3.38;;;8.50;62.00;;;;;;5029247;28;20111;-73
2022/03/24 02:44:22;;;;;;;8.93;3.40;;;8.50;62.30;;;;;;5031829;28;20499;-73
2022/03/24 02:46:49;;;;;;;6.95;3.53;;;8.90;61.90;;;;;;5031189;28;20064;-73
2022/03/24 02:49:20;;;;;;;8.07;3.60;;;8.20;62.10;;;;;;5030952;28;20102;-73
2022/03/24 02:51:46;;;;;;;7.93;3.78;;;8.10;62.50;;;;;;5028042;28;20451;-72
2022/03/24 02:54:13;;;;;;;10.13;4.82;;;7.90;62.90;;;;;;5022713;28;20037;-73
2022/03/24 02:56:42;;;;;;;7.10;3.75;;;7.80;63.00;;;;;;5031249;28;20041;-74
2022/03/24 02:59:08;;;;;;;10.25;4.57;;;7.40;63.50;;;;;;5031864;28;20479;-73
2022/03/24 03:01:35;;;;;;;8.63;3.75;;;7.30;63.90;;;;;;5026147;28;20033;-72
2022/03/24 03:04:01;;;;;;;7.75;4.25;;;7.30;63.80;;;;;;5031592;28;20041;-72
2022/03/24 03:06:27;;;;;;;6.65;3.60;;;7.30;63.60;;;;;;5028616;28;20033;-72
2022/03/24 03:08:52;;;;;;;7.15;3.60;;;7.20;63.90;;;;;;5032121;28;20046;-72
2022/03/24 03:11:22;;;;;;;8.45;3.40;;;7.30;64.10;;;;;;5026167;28;20038;-72
2022/03/24 03:13:49;;;;;;;8.18;3.33;;;7.20;64.00;;;;;;5028637;28;20040;-72
2022/03/24 03:16:15;;;;;;;10.13;4.40;;;7.30;64.10;;;;;;5030656;28;20030;-71
2022/03/24 03:18:44;;;;;;;10.23;3.83;;;7.50;63.60;;;;;;5030445;28;20059;-72
2022/03/24 03:21:11;;;;;;;7.78;3.75;;;7.50;63.50;;;;;;5028407;28;20034;-72
2022/03/24 03:23:40;;;;;;;9.68;3.60;;;7.70;63.20;;;;;;5029806;28;20089;-72
2022/03/24 03:26:06;;;;;;;5.35;3.20;;;7.80;63.20;;;;;;5031409;28;20556;-72
2022/03/24 03:28:32;;;;;;;4.75;3.00;;;7.60;63.30;;;;;;5028943;28;20113;-72
2022/03/24 03:30:58;;;;;;;6.47;3.10;;;7.90;63.00;;;;;;5023081;28;20042;-72
2022/03/24 03:33:24;;;;;;;7.63;2.70;;;7.80;63.10;;;;;;5025831;28;20080;-72
2022/03/24 03:35:51;;;;;;;8.93;3.33;;;7.90;63.30;;;;;;5030232;28;20104;-71
2022/03/24 03:38:18;;;;;;;8.88;4.20;;;8.30;62.60;;;;;;5029769;28;20099;-72
2022/03/24 03:40:44;;;;;;;6.72;3.10;;;8.00;63.00;;;;;;5028509;28;20029;-72
2022/03/24 03:43:11;;;;;;;7.15;3.67;;;7.70;63.30;;;;;;5025507;28;20388;-72
2022/03/24 03:45:38;;;;;;;8.18;4.05;;;7.50;63.60;;;;;;5029552;28;20211;-72
2022/03/24 03:48:05;;;;;;;5.60;3.15;;;7.30;64.10;;;;;;5029258;28;20061;-72
2022/03/24 03:50:32;;;;;;;7.38;4.15;;;7.20;64.50;;;;;;5031302;28;20030;-71
2022/03/24 03:52:57;;;;;;;7.45;3.80;;;7.40;63.80;;;;;;5028666;28;20360;-72
2022/03/24 03:55:23;;;;;;;6.70;3.25;;;7.30;64.20;;;;;;5031214;28;20131;-72
2022/03/24 03:57:49;;;;;;;8.25;3.47;;;7.20;64.10;;;;;;5029632;28;20392;-71
2022/03/24 04:00:57;;;;;;;7.70;3.40;;;7.10;64.20;;;;;;5028793;28;20120;-72
2022/03/24 04:03:05;;;;;;;8.75;3.83;;;7.10;64.30;;;;;;5012066;28;20042;-74
2022/03/24 04:05:31;;;;;;;6.97;3.55;;;6.90;64.60;;;;;;5025192;28;20029;-73
2022/03/24 04:07:57;;;;;;;6.45;3.50;;;6.70;65.00;;;;;;5024786;28;20040;-74
2022/03/24 04:10:23;;;;;;;5.93;3.05;;;7.00;64.70;;;;;;5024587;28;20404;-74
2022/03/24 04:12:50;;;;;;;8.75;4.07;;;7.40;64.00;;;;;;5019429;28;20391;-74
2022/03/24 04:15:16;;;;;;;10.27;3.30;;;7.50;63.90;;;;;;5019143;28;20116;-74
2022/03/24 04:17:42;;;;;;;5.75;2.97;;;7.60;63.60;;;;;;5021693;28;20591;-74
2022/03/24 04:20:08;;;;;;;7.65;3.90;;;7.70;63.50;;;;;;5017314;28;20035;-74
2022/03/24 04:22:35;;;;;;;7.32;3.08;;;7.60;63.50;;;;;;5019933;28;20143;-74
2022/03/24 04:25:01;;;;;;;9.23;3.10;;;7.80;63.30;;;;;;5025196;28;20044;-74
2022/03/24 04:27:27;;;;;;;7.03;2.92;;;7.80;63.30;;;;;;5025872;28;20056;-73
2022/03/24 04:29:53;;;;;;;7.10;3.13;;;7.90;63.30;;;;;;5023741;28;20593;-74
2022/03/24 04:32:18;;;;;;;7.22;3.15;;;7.90;63.30;;;;;;5022696;28;20041;-73
2022/03/24 04:34:45;;;;;;;6.25;3.22;;;7.80;63.30;;;;;;5024282;28;20045;-73
2022/03/24 04:37:11;;;;;;;6.53;3.15;;;7.80;63.50;;;;;;5022759;28;20600;-73
2022/03/24 04:39:37;;;;;;;8.18;3.50;;;7.60;63.90;;;;;;5023772;28;21793;-73
2022/03/24 04:42:08;;;;;;;6.95;3.17;;;7.50;64.00;;;;;;5020000;28;20036;-74
2022/03/24 04:44:34;;;;;;;7.47;3.33;;;7.50;63.90;;;;;;5028103;28;20025;-74
2022/03/24 04:47:00;;;;;;;7.05;3.67;;;7.60;63.60;;;;;;5028696;28;20901;-73
2022/03/24 04:49:26;;;;;;;5.68;3.22;;;7.20;64.10;;;;;;5023703;28;20022;-73
2022/03/24 04:51:53;;;;;;;7.20;3.30;;;7.30;64.30;;;;;;5027004;28;20037;-73
2022/03/24 04:54:19;;;;;;;5.57;3.03;;;7.10;64.60;;;;;;5027440;28;20090;-73
2022/03/24 04:56:45;;;;;;;6.57;3.10;;;7.30;64.40;;;;;;5029862;28;20040;-74
2022/03/24 04:59:11;;;;;;;4.88;2.88;;;7.30;64.30;;;;;;5023596;28;20143;-73
2022/03/24 05:01:37;;;;;;;7.57;3.20;;;7.40;64.20;;;;;;5017474;28;20084;-74
2022/03/24 05:04:04;;;;;;;8.50;3.00;;;7.50;64.10;;;;;;5025536;28;20060;-74
2022/03/24 05:06:31;;;;;;;6.10;3.05;;;7.40;64.10;;;;;;5025666;28;20102;-74
2022/03/24 05:08:57;;;;;;;6.70;2.97;;;7.30;64.50;;;;;;5022151;28;20845;-74
2022/03/24 05:11:23;;;;;;;8.02;3.65;;;7.00;64.80;;;;;;5021174;28;20083;-74
2022/03/24 05:13:50;;;;;;;5.90;3.75;;;6.90;65.30;;;;;;5027326;28;20339;-73
2022/03/24 05:16:17;;;;;;;7.40;3.47;;;6.90;65.20;;;;;;5024352;28;20029;-74
2022/03/24 05:18:43;;;;;;;5.82;3.22;;;6.80;65.30;;;;;;5023366;28;20182;-75
2022/03/24 05:21:08;;;;;;;8.13;3.78;;;7.10;64.90;;;;;;5018374;28;20108;-73
2022/03/24 05:23:34;;;;;;;7.97;3.67;;;7.20;64.60;;;;;;5025672;28;20029;-73
2022/03/24 05:26:00;;;;;;;6.22;2.88;;;7.20;64.80;;;;;;5026019;28;20164;-74
2022/03/24 05:28:26;;;;;;;8.57;3.40;;;7.10;65.10;;;;;;5016281;28;20033;-73
2022/03/24 05:30:52;;;;;;;6.47;3.40;;;6.90;65.20;;;;;;5018279;28;20041;-74
2022/03/24 05:33:17;;;;;;;7.05;3.33;;;6.80;65.70;;;;;;5025047;28;20517;-74
2022/03/24 05:35:43;;;;;;;7.60;3.10;;;6.90;65.60;;;;;;5025845;28;20084;-73
2022/03/24 05:38:09;;;;;;;7.93;3.95;;;7.10;65.10;;;;;;5022643;28;20476;-73
2022/03/24 05:40:35;;;;;;;8.18;3.53;;;6.90;65.80;;;;;;5026727;28;20044;-74
2022/03/24 05:43:02;;;;;;;10.23;3.75;;;6.90;65.20;;;;;;5022332;28;20029;-73
2022/03/24 05:45:28;;;;;;;8.38;3.42;;;7.10;65.00;;;;;;5020809;28;20645;-74
2022/03/24 05:47:53;;;;;;;8.70;3.50;;;7.20;64.80;;;;;;5024220;28;20112;-73
2022/03/24 05:50:19;;;;;;;7.95;3.33;;;7.30;64.70;;;;;;5023354;28;20080;-73
2022/03/24 05:52:49;;;;;;;7.88;3.03;;;7.40;64.60;;;;;;5023631;28;20037;-74
2022/03/24 05:55:16;;;;;;;6.45;3.78;;;7.30;64.70;;;;;;5026238;28;20034;-73
2022/03/24 05:57:42;;;;;;;6.75;3.00;;;7.20;64.60;;;;;;5023022;28;20515;-74
2022/03/24 06:00:08;;;;;;;7.55;3.85;;;7.00;65.10;;;;;;5016779;28;20040;-74
2022/03/24 06:02:34;;;;;;;8.82;3.95;;;6.70;65.60;;;;;;5023349;28;20041;-73
2022/03/24 06:05:01;;;;;;;8.13;3.78;;;6.50;66.20;;;;;;5023794;28;20431;-73
2022/03/24 06:07:28;;;;;;;6.07;3.83;;;6.60;66.40;;;;;;5023016;28;20056;-73
2022/03/24 06:09:54;;;;;;;6.97;3.53;;;6.30;67.20;;;;;;5025461;28;20033;-74
2022/03/24 06:12:20;;;;;;;7.28;4.18;;;6.40;66.70;;;;;;5024111;28;20029;-72
2022/03/24 06:14:46;;;;;;;8.93;3.58;;;6.60;66.40;;;;;;5021730;28;20021;-73
2022/03/24 06:17:11;;;;;;;11.10;3.70;;;6.60;66.60;;;;;;5021644;28;20080;-73
2022/03/24 06:19:37;;;;;;;6.30;3.65;;;6.80;66.30;;;;;;5023148;28;20048;-74
2022/03/24 06:22:04;;;;;;;7.82;3.92;;;7.10;65.70;;;;;;5024531;28;20032;-74
2022/03/24 06:24:31;;;;;;;7.13;3.90;;;6.90;66.10;;;;;;5019268;28;20053;-73
2022/03/24 06:26:57;;;;;;;8.75;3.65;;;6.80;66.10;;;;;;5018264;28;20029;-73
2022/03/24 06:29:23;;;;;;;6.95;3.50;;;7.10;65.70;;;;;;5017685;28;20450;-73
2022/03/24 06:31:49;;;;;;;9.80;4.43;;;7.00;66.00;;;;;;5021697;28;20116;-73
2022/03/24 06:34:15;;;;;;;8.45;3.78;;;6.70;66.40;;;;;;5022526;28;20116;-73
2022/03/24 06:36:41;;;;;;;7.95;3.42;;;6.80;66.50;;;;;;5023035;28;20068;-74
2022/03/24 06:39:07;;;;;;;6.97;3.17;;;7.10;66.00;;;;;;5022422;28;20064;-73
2022/03/24 06:41:33;;;;;;;6.63;3.42;;;6.90;66.70;;;;;;5019161;28;20037;-73
2022/03/24 06:43:59;;;;;;;5.53;3.13;;;7.20;66.10;;;;;;5024878;28;20146;-73
2022/03/24 06:46:27;;;;;;;6.40;2.80;;;7.50;65.00;;;;;;5024581;28;20040;-74
2022/03/24 06:48:53;;;;;;;5.85;3.08;;;7.90;64.80;;;;;;5020119;28;20057;-73
2022/03/24 06:51:19;;;;;;;6.25;3.55;;;7.80;64.70;;;;;;5020686;28;20080;-73
2022/03/24 06:53:45;;;;;;;5.30;2.70;;;7.90;64.10;;;;;;5016804;28;20033;-74
2022/03/24 06:56:11;;;;;;;8.43;2.95;;;7.90;64.10;;;;;;5017574;28;20499;-72
2022/03/24 06:58:36;;;;;;;9.32;3.55;;;7.90;64.70;;;;;;5023435;28;20153;-71
2022/03/24 07:01:03;;;;;;;5.68;2.83;;;7.70;65.20;;;;;;5023611;28;20033;-73
2022/03/24 07:03:29;;;;;;;5.20;2.78;;;8.00;64.10;;;;;;5019960;28;20065;-72
2022/03/24 07:05:55;;;;;;;6.00;2.90;;;8.00;64.20;;;;;;5010619;28;20662;-72
2022/03/24 07:08:23;;;;;;;6.53;2.83;;;7.90;64.90;;;;;;5019614;28;20033;-73
2022/03/24 07:10:49;;;;;;;6.78;3.22;;;7.90;64.40;;;;;;5017405;28;20061;-73
2022/03/24 07:13:16;;;;;;;7.78;3.22;;;8.00;64.00;;;;;;5019779;28;20029;-73
2022/03/24 07:15:41;;;;;;;5.85;3.50;;;8.10;64.00;;;;;;5020603;28;20044;-72
2022/03/24 07:18:08;;;;;;;7.90;3.70;;;8.10;63.80;;;;;;5020989;28;20392;-73
2022/03/24 07:20:35;;;;;;;6.70;3.50;;;8.20;63.80;;;;;;5018189;28;20045;-73
2022/03/24 07:23:03;;;;;;;5.90;3.28;;;8.10;64.40;;;;;;5001054;28;20025;-72
2022/03/24 07:25:30;;;;;;;6.82;3.15;;;8.10;64.50;;;;;;5013354;28;20037;-73
2022/03/24 07:27:57;;;;;;;7.35;4.07;;;8.10;66.30;;;;;;5021713;28;20026;-73
2022/03/24 07:30:23;;;;;;;19.55;4.32;;;7.90;67.20;;;;;;5023608;28;20030;-72
2022/03/24 07:32:48;;;;;;;9.65;3.90;;;7.90;66.40;;;;;;5014928;28;20036;-72
2022/03/24 07:35:18;;;;;;;13.07;3.90;;;8.00;65.80;;;;;;5019633;28;20040;-73
2022/03/24 07:37:46;;;;;;;5.97;3.85;;;8.00;66.50;;;;;;5019772;28;20029;-72
2022/03/24 07:40:12;;;;;;;7.22;3.28;;;8.20;67.90;;;;;;5021919;28;20133;-73
2022/03/24 07:42:38;;;;;;;6.60;3.88;;;8.20;67.20;;;;;;5017234;28;20119;-73
2022/03/24 07:45:05;;;;;;;7.63;3.92;;;8.20;66.10;;;;;;5020398;28;20033;-73
2022/03/24 07:47:31;;;;;;;23.65;4.78;;;8.30;66.10;;;;;;5021441;28;20419;-73
2022/03/24 07:49:56;;;;;;;22.50;4.80;;;8.40;66.50;;;;;;5020793;28;20030;-73
2022/03/24 07:52:26;;;;;;;9.15;3.45;;;8.40;66.00;;;;;;5017278;28;20033;-72
2022/03/24 07:55:00;;;;;;;6.68;3.53;;;8.40;65.80;;;;;;5020535;28;20573;-73
2022/03/24 07:57:31;;;;;;;5.75;3.00;;;8.50;65.60;;;;;;5011599;28;20064;-72
2022/03/24 07:59:58;;;;;;;5.85;3.25;;;8.50;64.50;;;;;;5005428;28;20095;-72
2022/03/24 08:02:24;;;;;;;10.73;3.42;;;8.60;64.50;;;;;;5010396;28;20120;-73
2022/03/24 08:04:51;;;;;;;5.95;3.40;;;8.70;65.10;;;;;;5012037;28;20032;-73
2022/03/24 08:07:17;;;;;;;7.25;3.47;;;8.80;64.90;;;;;;5007326;28;20045;-73
2022/03/24 08:09:42;;;;;;;8.77;3.50;;;8.90;64.80;;;;;;5006713;28;20033;-73
2022/03/24 08:12:09;;;;;;;7.97;3.45;;;8.90;64.90;;;;;;5018932;28;20041;-73
2022/03/24 08:14:35;;;;;;;14.60;3.88;;;9.00;65.30;;;;;;5014797;28;20034;-72
2022/03/24 08:17:00;;;;;;;10.30;3.60;;;9.00;64.20;;;;;;5005404;28;20025;-73
2022/03/24 08:19:26;;;;;;;6.88;3.45;;;9.10;63.90;;;;;;5006311;28;20033;-73
2022/03/24 08:21:52;;;;;;;6.88;3.58;;;9.10;64.40;;;;;;5013095;28;20041;-73
2022/03/24 08:24:17;;;;;;;29.92;4.43;;;9.20;63.50;;;;;;5016586;28;20036;-72
2022/03/24 08:26:43;;;;;;;20.15;4.38;;;9.20;63.90;;;;;;5014946;28;20032;-73
2022/03/24 08:29:09;;;;;;;16.85;4.00;;;9.30;63.60;;;;;;5008482;28;20102;-72
2022/03/24 08:31:35;;;;;;;7.18;3.28;;;9.40;64.10;;;;;;5007409;28;20105;-73
2022/03/24 08:34:00;;;;;;;6.10;3.00;;;9.40;65.50;;;;;;5016708;28;20034;-72
2022/03/24 08:36:26;;;;;;;7.00;3.70;;;9.40;63.80;;;;;;5020158;28;20049;-73
2022/03/24 08:38:52;;;;;;;7.10;3.00;;;9.50;64.40;;;;;;5022138;28;20053;-73
2022/03/24 08:41:18;;;;;;;9.98;3.75;;;9.50;63.80;;;;;;5018258;28;20479;-73
2022/03/24 08:43:43;;;;;;;10.30;3.38;;;9.60;64.20;;;;;;5022021;28;20045;-73
2022/03/24 08:46:09;;;;;;;9.40;4.13;;;9.70;63.90;;;;;;5011332;28;20052;-73
2022/03/24 08:48:36;;;;;;;9.35;3.40;;;9.70;63.40;;;;;;5017713;28;20063;-72
2022/03/24 08:51:02;;;;;;;6.00;3.22;;;9.90;63.50;;;;;;5018503;28;20164;-73
2022/03/24 08:53:28;;;;;;;19.02;3.28;;;10.00;63.60;;;;;;5018440;28;20045;-73
2022/03/24 08:55:55;;;;;;;9.00;2.80;;;10.10;64.00;;;;;;5011609;28;20025;-73
2022/03/24 08:58:21;;;;;;;10.00;3.72;;;10.10;62.90;;;;;;5008312;28;20063;-73
2022/03/24 09:00:48;;;;;;;9.30;3.60;;;10.20;63.70;;;;;;5017681;28;20044;-73
2022/03/24 09:03:13;;;;;;;7.85;3.35;;;10.20;63.10;;;;;;5016609;28;20084;-73
2022/03/24 09:05:40;;;;;;;9.13;3.40;;;10.30;63.70;;;;;;5017023;28;20957;-73
2022/03/24 09:08:06;;;;;;;6.97;3.92;;;10.50;64.40;;;;;;5020806;28;20018;-73
2022/03/24 09:10:32;;;;;;;6.75;3.60;;;10.50;62.50;;;;;;5021131;28;20038;-73
2022/03/24 09:12:59;;;;;;;5.70;2.95;;;10.60;62.70;;;;;;5020978;28;20052;-73
2022/03/24 09:15:24;;;;;;;9.98;3.40;;;10.80;62.40;;;;;;5020177;28;20029;-73
2022/03/24 09:17:50;;;;;;;9.80;3.50;;;10.80;62.20;;;;;;5019390;28;20060;-73
2022/03/24 09:20:18;;;;;;;7.82;3.50;;;10.90;62.10;;;;;;5010557;28;20130;-73
2022/03/24 09:22:46;;;;;;;7.05;2.83;;;12.60;61.50;;;;;;5018248;28;20041;-73
2022/03/24 09:25:14;;;;;;;10.90;3.45;;;16.30;56.70;;;;;;5004033;28;20090;-73
2022/03/24 09:27:41;;;;;;;12.65;3.22;;;17.70;54.70;;;;;;5022032;28;20049;-73
2022/03/24 09:30:09;;;;;;;7.22;3.13;;;18.20;54.90;;;;;;5024160;28;20484;-73
2022/03/24 09:32:35;;;;;;;9.55;3.80;;;18.60;54.70;;;;;;5016726;28;20583;-73
2022/03/24 09:35:03;;;;;;;13.05;4.68;;;18.60;54.80;;;;;;5023166;28;20117;-72
2022/03/24 09:37:28;;;;;;;8.02;3.85;;;19.70;53.90;;;;;;5024040;28;20365;-73
2022/03/24 09:39:55;;;;;;;25.42;4.70;;;20.60;53.10;;;;;;5021871;28;20045;-72
2022/03/24 09:42:21;;;;;;;20.25;4.07;;;19.20;53.00;;;;;;5013221;28;20499;-72
2022/03/24 09:44:47;;;;;;;20.15;3.97;;;19.00;53.40;;;;;;5024935;28;20512;-73
2022/03/24 09:47:13;;;;;;;5.75;3.15;;;17.00;53.90;;;;;;5024686;28;20194;-73
2022/03/24 09:49:41;;;;;;;6.20;2.97;;;15.10;55.50;;;;;;5022836;28;20054;-73
2022/03/24 09:52:10;;;;;;;14.68;3.63;;;14.00;58.50;;;;;;5023416;28;20029;-72
2022/03/24 09:54:35;;;;;;;6.40;3.28;;;13.50;58.40;;;;;;5022760;28;20120;-73
2022/03/24 09:57:08;;;;;;;10.50;3.58;;;13.30;59.50;;;;;;5018979;28;20171;-73
2022/03/24 09:59:35;;;;;;;21.45;3.72;;;13.20;59.80;;;;;;5015902;28;20517;-73
2022/03/24 10:02:03;;;;;;;19.13;4.05;;;13.00;59.10;;;;;;5007053;28;20076;-72
2022/03/24 10:04:48;;;;;;;7.10;2.80;;;13.10;59.70;;;;;;5006266;28;20038;-73
2022/03/24 10:07:14;;;;;;;11.13;3.20;;;13.10;59.30;;;;;;5022647;28;20045;-72
2022/03/24 10:09:43;;;;;;;6.28;3.50;;;13.10;60.00;;;;;;5022995;28;20033;-73
2022/03/24 10:12:18;;;;;;;7.72;2.80;;;13.20;58.50;;;;;;5007712;28;20025;-73
2022/03/24 10:14:44;;;;;;;5.60;2.97;;;13.50;60.00;;;;;;5008786;28;20032;-73
2022/03/24 10:17:11;;;;;;;8.00;3.00;;;13.50;58.70;;;;;;5013819;28;20034;-73
2022/03/24 10:19:38;;;;;;;5.35;2.47;;;13.60;58.40;;;;;;5016132;28;20128;-73
2022/03/24 10:22:08;;;;;;;5.35;2.53;;;13.70;58.10;;;;;;5012791;28;20075;-73
2022/03/24 10:24:43;;;;;;;5.10;2.78;;;13.80;58.20;;;;;;5021258;28;20048;-73
2022/03/24 10:27:11;;;;;;;6.53;2.67;;;13.90;58.20;;;;;;5024443;28;20030;-73
2022/03/24 10:29:37;;;;;;;6.60;3.55;;;14.20;57.40;;;;;;5020745;28;20089;-73
2022/03/24 10:32:10;;;;;;;8.88;3.03;;;14.00;57.50;;;;;;5018263;28;20038;-73
2022/03/24 10:34:39;;;;;;;8.95;2.83;;;13.90;57.00;;;;;;5016293;28;20503;-73
2022/03/24 10:37:09;;;;;;;19.20;3.65;;;14.10;56.60;;;;;;5016825;28;20402;-73
2022/03/24 10:39:36;;;;;;;33.30;4.13;;;14.40;56.10;;;;;;5009030;28;20510;-73
2022/03/24 10:42:15;;;;;;;5.78;2.45;;;14.60;56.50;;;;;;5015370;28;20041;-73
2022/03/24 10:45:02;;;;;;;8.20;2.67;;;14.80;56.30;;;;;;5010595;28;21369;-74
2022/03/24 10:48:00;;;;;;;6.43;2.55;;;15.00;56.40;;;;;;5011642;28;20032;-73
2022/03/24 10:50:40;;;;;;;6.20;2.25;;;15.00;56.90;;;;;;5013568;28;20116;-74
2022/03/24 10:53:10;;;;;;;8.60;2.75;;;15.00;57.20;;;;;;5021758;28;20038;-74
2022/03/24 10:55:35;;;;;;;5.93;2.70;;;15.20;57.10;;;;;;5022962;28;20048;-74
2022/03/24 10:58:04;;;;;;;5.35;2.80;;;15.30;57.40;;;;;;5023167;28;20034;-74
2022/03/24 11:00:31;;;;;;;7.82;2.72;;;15.50;57.90;;;;;;5019439;28;20036;-73
2022/03/24 11:02:57;;;;;;;7.63;2.40;;;15.50;56.10;;;;;;5022386;28;20049;-74
2022/03/24 11:05:23;;;;;;;8.38;2.85;;;15.40;55.80;;;;;;5028721;28;20038;-74
2022/03/24 11:07:53;;;;;;;6.78;2.38;;;15.60;56.90;;;;;;5010803;28;20139;-74
2022/03/24 11:10:20;;;;;;;9.65;2.55;;;15.60;55.80;;;;;;5023259;28;20037;-74
2022/03/24 11:12:49;;;;;;;6.43;3.17;;;16.00;55.60;;;;;;5022728;28;20118;-74
2022/03/24 11:15:16;;;;;;;6.55;2.53;;;16.10;57.40;;;;;;5020980;28;20087;-74
2022/03/24 11:17:42;;;;;;;6.82;3.00;;;16.10;56.30;;;;;;5006859;28;20708;-74
2022/03/24 11:20:31;;;;;;;6.97;2.58;;;16.10;55.40;;;;;;5015917;28;20128;-74
2022/03/24 11:23:03;;;;;;;10.13;3.28;;;16.30;56.70;;;;;;5008790;28;20123;-74
2022/03/24 11:25:30;;;;;;;4.35;2.30;;;16.70;57.10;;;;;;5011922;28;20156;-73
2022/03/24 11:27:56;;;;;;;6.03;2.65;;;16.70;55.30;;;;;;5023152;28;20021;-74
2022/03/24 11:30:24;;;;;;;4.95;2.53;;;16.30;54.60;;;;;;5023306;28;20037;-74
2022/03/24 11:32:52;;;;;;;4.47;2.20;;;16.30;54.80;;;;;;5014701;28;20034;-74
2022/03/24 11:35:19;;;;;;;5.60;2.67;;;16.50;55.10;;;;;;5018861;28;20053;-74
2022/03/24 11:37:45;;;;;;;5.68;2.28;;;16.80;53.60;;;;;;5022351;28;20048;-74
2022/03/24 11:40:16;;;;;;;4.88;2.50;;;17.00;53.70;;;;;;5022004;28;20044;-74
2022/03/24 11:43:01;;;;;;;9.48;2.75;;;17.20;54.70;;;;;;5020576;28;20156;-74
2022/03/24 11:45:27;;;;;;;;;;;16.70;53.70;;;;;;5022772;28;20653;-73
2022/03/24 11:48:05;;;;;;;5.65;2.53;;;17.00;54.30;;;;;;5017270;28;19924;-73
2022/03/24 11:50:41;;;;;;;4.22;1.95;;;17.00;54.20;;;;;;5006658;28;20057;-74
2022/03/24 11:53:25;;;;;;;8.27;2.25;;;17.20;54.10;;;;;;5007032;28;21393;-73
2022/03/24 11:56:03;;;;;;;5.38;2.53;;;17.20;53.40;;;;;;5011284;28;20044;-73
2022/03/24 11:58:30;;;;;;;5.85;2.30;;;17.00;53.50;;;;;;5018939;28;20034;-74
2022/03/24 12:00:57;;;;;;;6.65;2.00;;;17.00;53.60;;;;;;5022334;28;20041;-73
2022/03/24 12:03:37;;;;;;;5.30;2.67;;;17.20;53.00;;;;;;5023227;28;20187;-74
2022/03/24 12:06:05;;;;;;;7.47;2.78;;;17.10;52.70;;;;;;5020566;28;20030;-74
2022/03/24 12:08:47;;;;;;;8.05;2.80;;;17.50;53.70;;;;;;5014964;28;20060;-74
2022/03/24 12:11:31;;;;;;;7.43;2.28;;;17.30;53.10;;;;;;5006866;28;20029;-74
2022/03/24 12:13:58;;;;;;;7.28;2.53;;;17.70;54.50;;;;;;5005290;28;20030;-74
2022/03/24 12:16:25;;;;;;;5.00;2.45;;;17.90;54.40;;;;;;5012351;28;20167;-73
2022/03/24 12:18:52;;;;;;;6.32;2.10;;;17.70;53.00;;;;;;5011075;28;20076;-74
2022/03/24 12:21:23;;;;;;;4.10;2.10;;;17.80;53.70;;;;;;5009964;28;20022;-74
2022/03/24 12:24:08;;;;;;;4.53;2.35;;;18.00;52.90;;;;;;5009023;28;20301;-74
2022/03/24 12:26:56;;;;;;;7.30;2.67;;;18.10;52.30;;;;;;5032491;28;20043;-74
2022/03/24 12:29:27;;;;;;;6.13;2.60;;;18.10;51.80;;;;;;5018437;28;20427;-75
2022/03/24 12:32:02;;;;;;;42.50;5.85;;;18.30;53.00;;;;;;5012927;28;20030;-75
2022/03/24 12:34:47;;;;;;;7.90;2.78;;;18.70;54.20;;;;;;5015146;28;20037;-74
2022/03/24 12:37:22;;;;;;;6.38;3.03;;;18.80;52.00;;;;;;5017341;28;20033;-74
2022/03/24 12:39:49;;;;;;;11.02;2.47;;;19.20;51.80;;;;;;5021118;28;20041;-74
2022/03/24 12:42:15;;;;;;;7.38;2.75;;;18.90;51.80;;;;;;5021580;28;20045;-74
2022/03/24 12:44:55;;;;;;;5.65;2.88;;;19.10;53.80;;;;;;5017231;28;20030;-74
2022/03/24 12:47:37;;;;;;;5.18;2.88;;;19.00;51.80;;;;;;5021477;28;20035;-74
2022/03/24 12:50:21;;;;;;;6.25;2.95;;;19.10;51.60;;;;;;5020282;28;20033;-74
2022/03/24 12:52:57;;;;;;;4.03;2.08;;;19.30;51.40;;;;;;5021339;28;20045;-74
2022/03/24 12:55:32;;;;;;;7.20;2.75;;;19.30;49.60;;;;;;5021201;28;20059;-75
2022/03/24 12:58:14;;;;;;;6.03;2.67;;;19.10;50.40;;;;;;5014956;28;20052;-75
2022/03/24 13:00:42;;;;;;;8.20;3.60;;;18.90;50.20;;;;;;5016926;28;20037;-74